sensor_id;sensor_type;location;lat;lon;timestamp;P1;durP1;ratioP1;P2;durP2;ratioP2
19619;SDS011;9957;52.282;21.110;2023-02-15T00:01:12;67.20;;;29.23;;
19619;SDS011;9957;52.282;21.110;2023-02-15T00:03:38;69.65;;;30.52;;
19619;SDS011;9957;52.282;21.110;2023-02-15T00:06:04;68.93;;;29.20;;
19619;SDS011;9957;52.282;21.110;2023-02-15T00:08:31;66.70;;;28.67;;
19619;SDS011;9957;52.282;21.110;2023-02-15T00:11:04;64.13;;;28.50;;
19619;SDS011;9957;52.282;21.110;2023-02-15T00:13:30;61.27;;;27.63;;
19619;SDS011;9957;52.282;21.110;2023-02-15T00:16:00;61.60;;;27.35;;
19619;SDS011;9957;52.282;21.110;2023-02-15T00:18:26;60.90;;;27.27;;
19619;SDS011;9957;52.282;21.110;2023-02-15T00:20:52;64.00;;;26.40;;
19619;SDS011;9957;52.282;21.110;2023-02-15T00:23:18;65.40;;;26.67;;
19619;SDS011;9957;52.282;21.110;2023-02-15T00:25:44;61.30;;;26.55;;
19619;SDS011;9957;52.282;21.110;2023-02-15T00:28:10;66.40;;;26.70;;
19619;SDS011;9957;52.282;21.110;2023-02-15T00:30:36;59.53;;;26.67;;
19619;SDS011;9957;52.282;21.110;2023-02-15T00:33:02;57.53;;;25.55;;
19619;SDS011;9957;52.282;21.110;2023-02-15T00:35:28;57.42;;;25.92;;
19619;SDS011;9957;52.282;21.110;2023-02-15T00:37:55;58.93;;;26.70;;
19619;SDS011;9957;52.282;21.110;2023-02-15T00:40:21;62.27;;;26.20;;
19619;SDS011;9957;52.282;21.110;2023-02-15T00:42:47;65.70;;;27.35;;
19619;SDS011;9957;52.282;21.110;2023-02-15T00:45:13;64.65;;;26.58;;
19619;SDS011;9957;52.282;21.110;2023-02-15T00:47:39;64.30;;;26.02;;
19619;SDS011;9957;52.282;21.110;2023-02-15T00:50:06;58.88;;;24.40;;
19619;SDS011;9957;52.282;21.110;2023-02-15T00:52:32;61.22;;;23.92;;
19619;SDS011;9957;52.282;21.110;2023-02-15T00:54:58;57.92;;;24.48;;
19619;SDS011;9957;52.282;21.110;2023-02-15T00:57:24;59.28;;;23.88;;
19619;SDS011;9957;52.282;21.110;2023-02-15T00:59:50;59.22;;;24.95;;
19619;SDS011;9957;52.282;21.110;2023-02-15T01:02:16;62.90;;;25.60;;
19619;SDS011;9957;52.282;21.110;2023-02-15T01:04:42;62.78;;;25.92;;
19619;SDS011;9957;52.282;21.110;2023-02-15T01:07:08;57.97;;;24.92;;
19619;SDS011;9957;52.282;21.110;2023-02-15T01:09:34;66.57;;;26.67;;
19619;SDS011;9957;52.282;21.110;2023-02-15T01:12:00;59.93;;;26.03;;
19619;SDS011;9957;52.282;21.110;2023-02-15T01:14:26;64.57;;;26.90;;
19619;SDS011;9957;52.282;21.110;2023-02-15T01:16:52;57.65;;;25.85;;
19619;SDS011;9957;52.282;21.110;2023-02-15T01:19:18;60.43;;;25.57;;
19619;SDS011;9957;52.282;21.110;2023-02-15T01:21:44;63.22;;;26.48;;
19619;SDS011;9957;52.282;21.110;2023-02-15T01:24:13;62.83;;;25.85;;
19619;SDS011;9957;52.282;21.110;2023-02-15T01:26:40;61.05;;;26.30;;
19619;SDS011;9957;52.282;21.110;2023-02-15T01:29:06;65.50;;;25.77;;
19619;SDS011;9957;52.282;21.110;2023-02-15T01:31:32;66.07;;;27.80;;
19619;SDS011;9957;52.282;21.110;2023-02-15T01:33:58;65.88;;;27.70;;
19619;SDS011;9957;52.282;21.110;2023-02-15T01:36:24;62.50;;;27.35;;
19619;SDS011;9957;52.282;21.110;2023-02-15T01:38:50;64.65;;;26.65;;
19619;SDS011;9957;52.282;21.110;2023-02-15T01:41:16;66.95;;;27.88;;
19619;SDS011;9957;52.282;21.110;2023-02-15T01:43:47;64.53;;;27.83;;
19619;SDS011;9957;52.282;21.110;2023-02-15T01:46:14;64.90;;;27.75;;
19619;SDS011;9957;52.282;21.110;2023-02-15T01:48:43;65.82;;;27.33;;
19619;SDS011;9957;52.282;21.110;2023-02-15T01:51:10;64.60;;;27.23;;
19619;SDS011;9957;52.282;21.110;2023-02-15T01:53:59;64.80;;;27.13;;
19619;SDS011;9957;52.282;21.110;2023-02-15T01:56:25;65.80;;;27.35;;
19619;SDS011;9957;52.282;21.110;2023-02-15T01:58:53;68.87;;;27.50;;
19619;SDS011;9957;52.282;21.110;2023-02-15T02:01:22;65.15;;;27.08;;
19619;SDS011;9957;52.282;21.110;2023-02-15T02:06:27;67.23;;;27.90;;
19619;SDS011;9957;52.282;21.110;2023-02-15T02:08:54;67.15;;;28.17;;
19619;SDS011;9957;52.282;21.110;2023-02-15T02:11:20;70.35;;;28.13;;
19619;SDS011;9957;52.282;21.110;2023-02-15T02:13:46;71.90;;;28.30;;
19619;SDS011;9957;52.282;21.110;2023-02-15T02:16:20;71.47;;;28.33;;
19619;SDS011;9957;52.282;21.110;2023-02-15T02:21:35;62.67;;;27.27;;
19619;SDS011;9957;52.282;21.110;2023-02-15T02:35:08;63.40;;;27.67;;
19619;SDS011;9957;52.282;21.110;2023-02-15T02:37:46;72.77;;;27.23;;
19619;SDS011;9957;52.282;21.110;2023-02-15T02:42:56;66.13;;;27.08;;
19619;SDS011;9957;52.282;21.110;2023-02-15T02:45:26;65.75;;;26.83;;
19619;SDS011;9957;52.282;21.110;2023-02-15T02:47:56;66.82;;;26.95;;
19619;SDS011;9957;52.282;21.110;2023-02-15T02:50:23;68.93;;;27.48;;
19619;SDS011;9957;52.282;21.110;2023-02-15T02:52:51;63.00;;;26.90;;
19619;SDS011;9957;52.282;21.110;2023-02-15T02:55:23;65.20;;;27.23;;
19619;SDS011;9957;52.282;21.110;2023-02-15T03:00:17;63.53;;;26.75;;
19619;SDS011;9957;52.282;21.110;2023-02-15T03:02:44;66.25;;;26.65;;
19619;SDS011;9957;52.282;21.110;2023-02-15T03:05:13;64.93;;;27.07;;
19619;SDS011;9957;52.282;21.110;2023-02-15T03:07:40;66.95;;;26.58;;
19619;SDS011;9957;52.282;21.110;2023-02-15T03:10:07;62.75;;;25.70;;
19619;SDS011;9957;52.282;21.110;2023-02-15T03:12:34;65.07;;;26.13;;
19619;SDS011;9957;52.282;21.110;2023-02-15T03:15:02;64.75;;;27.13;;
19619;SDS011;9957;52.282;21.110;2023-02-15T03:17:29;66.55;;;27.60;;
19619;SDS011;9957;52.282;21.110;2023-02-15T03:19:57;65.50;;;27.05;;
19619;SDS011;9957;52.282;21.110;2023-02-15T03:22:26;72.28;;;28.17;;
19619;SDS011;9957;52.282;21.110;2023-02-15T03:27:24;68.27;;;27.27;;
19619;SDS011;9957;52.282;21.110;2023-02-15T03:29:52;63.83;;;27.47;;
19619;SDS011;9957;52.282;21.110;2023-02-15T03:32:19;64.90;;;26.67;;
19619;SDS011;9957;52.282;21.110;2023-02-15T03:34:45;67.75;;;27.95;;
19619;SDS011;9957;52.282;21.110;2023-02-15T03:40:07;64.43;;;26.38;;
19619;SDS011;9957;52.282;21.110;2023-02-15T03:43:04;64.22;;;26.75;;
19619;SDS011;9957;52.282;21.110;2023-02-15T03:45:33;62.07;;;26.10;;
19619;SDS011;9957;52.282;21.110;2023-02-15T03:48:00;64.13;;;25.77;;
19619;SDS011;9957;52.282;21.110;2023-02-15T03:50:31;59.53;;;25.10;;
19619;SDS011;9957;52.282;21.110;2023-02-15T03:53:17;62.88;;;26.50;;
19619;SDS011;9957;52.282;21.110;2023-02-15T03:55:48;63.13;;;26.50;;
19619;SDS011;9957;52.282;21.110;2023-02-15T03:58:15;65.88;;;26.45;;
19619;SDS011;9957;52.282;21.110;2023-02-15T04:01:00;68.07;;;26.52;;
19619;SDS011;9957;52.282;21.110;2023-02-15T04:03:50;60.47;;;25.40;;
19619;SDS011;9957;52.282;21.110;2023-02-15T04:06:18;67.72;;;27.05;;
19619;SDS011;9957;52.282;21.110;2023-02-15T04:08:44;68.83;;;26.93;;
19619;SDS011;9957;52.282;21.110;2023-02-15T04:11:29;65.53;;;26.70;;
19619;SDS011;9957;52.282;21.110;2023-02-15T04:13:55;67.95;;;26.63;;
19619;SDS011;9957;52.282;21.110;2023-02-15T04:16:22;62.30;;;26.52;;
19619;SDS011;9957;52.282;21.110;2023-02-15T04:18:48;62.28;;;26.98;;
19619;SDS011;9957;52.282;21.110;2023-02-15T04:21:33;67.45;;;27.08;;
19619;SDS011;9957;52.282;21.110;2023-02-15T04:24:18;64.90;;;26.33;;
19619;SDS011;9957;52.282;21.110;2023-02-15T04:27:03;61.45;;;25.52;;
19619;SDS011;9957;52.282;21.110;2023-02-15T04:29:29;64.72;;;26.13;;
19619;SDS011;9957;52.282;21.110;2023-02-15T04:31:56;62.80;;;25.73;;
19619;SDS011;9957;52.282;21.110;2023-02-15T04:34:22;67.35;;;26.10;;
19619;SDS011;9957;52.282;21.110;2023-02-15T04:36:49;67.07;;;25.92;;
19619;SDS011;9957;52.282;21.110;2023-02-15T04:39:16;63.27;;;26.23;;
19619;SDS011;9957;52.282;21.110;2023-02-15T04:41:42;70.15;;;26.70;;
19619;SDS011;9957;52.282;21.110;2023-02-15T04:44:09;76.47;;;27.90;;
19619;SDS011;9957;52.282;21.110;2023-02-15T04:46:35;84.00;;;28.92;;
19619;SDS011;9957;52.282;21.110;2023-02-15T04:49:01;78.93;;;28.20;;
19619;SDS011;9957;52.282;21.110;2023-02-15T04:51:27;79.30;;;28.10;;
19619;SDS011;9957;52.282;21.110;2023-02-15T04:53:53;63.13;;;25.92;;
19619;SDS011;9957;52.282;21.110;2023-02-15T04:56:21;75.87;;;27.23;;
19619;SDS011;9957;52.282;21.110;2023-02-15T04:58:47;81.13;;;29.13;;
19619;SDS011;9957;52.282;21.110;2023-02-15T05:01:13;84.85;;;29.60;;
19619;SDS011;9957;52.282;21.110;2023-02-15T05:03:39;75.47;;;26.92;;
19619;SDS011;9957;52.282;21.110;2023-02-15T05:06:05;64.53;;;24.80;;
19619;SDS011;9957;52.282;21.110;2023-02-15T05:08:31;59.70;;;24.65;;
19619;SDS011;9957;52.282;21.110;2023-02-15T05:10:57;64.50;;;24.80;;
19619;SDS011;9957;52.282;21.110;2023-02-15T05:13:24;64.88;;;25.25;;
19619;SDS011;9957;52.282;21.110;2023-02-15T05:15:50;60.35;;;24.73;;
19619;SDS011;9957;52.282;21.110;2023-02-15T05:18:17;67.95;;;26.35;;
19619;SDS011;9957;52.282;21.110;2023-02-15T05:20:43;72.40;;;25.02;;
19619;SDS011;9957;52.282;21.110;2023-02-15T05:23:10;67.72;;;25.33;;
19619;SDS011;9957;52.282;21.110;2023-02-15T05:25:36;63.17;;;23.87;;
19619;SDS011;9957;52.282;21.110;2023-02-15T05:28:20;74.72;;;26.60;;
19619;SDS011;9957;52.282;21.110;2023-02-15T05:30:48;77.10;;;27.37;;
19619;SDS011;9957;52.282;21.110;2023-02-15T05:33:14;70.63;;;26.13;;
19619;SDS011;9957;52.282;21.110;2023-02-15T05:35:40;61.00;;;25.30;;
19619;SDS011;9957;52.282;21.110;2023-02-15T05:38:06;63.77;;;25.17;;
19619;SDS011;9957;52.282;21.110;2023-02-15T05:40:32;62.80;;;25.05;;
19619;SDS011;9957;52.282;21.110;2023-02-15T05:42:58;56.72;;;22.60;;
19619;SDS011;9957;52.282;21.110;2023-02-15T05:45:24;53.47;;;21.98;;
19619;SDS011;9957;52.282;21.110;2023-02-15T05:47:51;49.20;;;20.70;;
19619;SDS011;9957;52.282;21.110;2023-02-15T05:50:17;54.85;;;22.17;;
19619;SDS011;9957;52.282;21.110;2023-02-15T05:52:43;58.83;;;22.43;;
19619;SDS011;9957;52.282;21.110;2023-02-15T05:55:09;57.95;;;23.27;;
19619;SDS011;9957;52.282;21.110;2023-02-15T05:57:35;60.92;;;23.58;;
19619;SDS011;9957;52.282;21.110;2023-02-15T06:00:02;63.70;;;25.52;;
19619;SDS011;9957;52.282;21.110;2023-02-15T06:02:33;61.23;;;25.13;;
19619;SDS011;9957;52.282;21.110;2023-02-15T06:04:59;63.05;;;26.30;;
19619;SDS011;9957;52.282;21.110;2023-02-15T06:07:25;66.45;;;26.45;;
19619;SDS011;9957;52.282;21.110;2023-02-15T06:09:51;66.13;;;26.25;;
19619;SDS011;9957;52.282;21.110;2023-02-15T06:12:18;59.42;;;23.55;;
19619;SDS011;9957;52.282;21.110;2023-02-15T06:14:44;56.90;;;23.13;;
19619;SDS011;9957;52.282;21.110;2023-02-15T06:17:10;54.92;;;22.52;;
19619;SDS011;9957;52.282;21.110;2023-02-15T06:19:36;57.17;;;22.23;;
19619;SDS011;9957;52.282;21.110;2023-02-15T06:22:02;58.93;;;23.23;;
19619;SDS011;9957;52.282;21.110;2023-02-15T06:24:28;58.40;;;23.10;;
19619;SDS011;9957;52.282;21.110;2023-02-15T06:26:54;59.15;;;24.38;;
19619;SDS011;9957;52.282;21.110;2023-02-15T06:29:20;58.30;;;24.27;;
19619;SDS011;9957;52.282;21.110;2023-02-15T06:31:46;60.58;;;23.27;;
19619;SDS011;9957;52.282;21.110;2023-02-15T06:34:12;58.05;;;23.08;;
19619;SDS011;9957;52.282;21.110;2023-02-15T06:36:38;60.20;;;24.48;;
19619;SDS011;9957;52.282;21.110;2023-02-15T06:39:05;82.45;;;37.08;;
19619;SDS011;9957;52.282;21.110;2023-02-15T06:41:31;58.60;;;25.17;;
19619;SDS011;9957;52.282;21.110;2023-02-15T06:43:57;54.92;;;22.60;;
19619;SDS011;9957;52.282;21.110;2023-02-15T06:46:23;91.38;;;36.63;;
19619;SDS011;9957;52.282;21.110;2023-02-15T06:48:49;55.08;;;21.42;;
19619;SDS011;9957;52.282;21.110;2023-02-15T06:51:15;60.47;;;24.70;;
19619;SDS011;9957;52.282;21.110;2023-02-15T06:53:41;81.88;;;32.22;;
19619;SDS011;9957;52.282;21.110;2023-02-15T06:56:08;86.60;;;33.73;;
19619;SDS011;9957;52.282;21.110;2023-02-15T06:58:43;80.47;;;33.00;;
19619;SDS011;9957;52.282;21.110;2023-02-15T07:01:11;51.22;;;21.63;;
19619;SDS011;9957;52.282;21.110;2023-02-15T07:03:37;67.13;;;26.42;;
19619;SDS011;9957;52.282;21.110;2023-02-15T07:06:03;81.10;;;31.88;;
19619;SDS011;9957;52.282;21.110;2023-02-15T07:08:33;75.65;;;29.35;;
19619;SDS011;9957;52.282;21.110;2023-02-15T07:10:59;65.13;;;28.40;;
19619;SDS011;9957;52.282;21.110;2023-02-15T07:13:44;78.93;;;32.97;;
19619;SDS011;9957;52.282;21.110;2023-02-15T07:16:10;57.38;;;23.75;;
19619;SDS011;9957;52.282;21.110;2023-02-15T07:18:36;54.30;;;21.80;;
19619;SDS011;9957;52.282;21.110;2023-02-15T07:21:03;81.20;;;31.13;;
19619;SDS011;9957;52.282;21.110;2023-02-15T07:23:29;69.33;;;27.53;;
19619;SDS011;9957;52.282;21.110;2023-02-15T07:25:58;95.72;;;38.17;;
19619;SDS011;9957;52.282;21.110;2023-02-15T07:28:25;84.30;;;37.20;;
19619;SDS011;9957;52.282;21.110;2023-02-15T07:30:51;76.93;;;30.63;;
19619;SDS011;9957;52.282;21.110;2023-02-15T07:33:17;47.35;;;17.98;;
19619;SDS011;9957;52.282;21.110;2023-02-15T07:35:55;52.17;;;20.67;;
19619;SDS011;9957;52.282;21.110;2023-02-15T07:38:23;59.13;;;25.58;;
19619;SDS011;9957;52.282;21.110;2023-02-15T07:40:49;51.45;;;21.00;;
19619;SDS011;9957;52.282;21.110;2023-02-15T07:43:15;52.75;;;21.42;;
19619;SDS011;9957;52.282;21.110;2023-02-15T07:45:42;58.08;;;24.83;;
19619;SDS011;9957;52.282;21.110;2023-02-15T07:48:08;60.50;;;27.40;;
19619;SDS011;9957;52.282;21.110;2023-02-15T07:50:34;56.70;;;22.83;;
19619;SDS011;9957;52.282;21.110;2023-02-15T07:53:01;45.45;;;19.48;;
19619;SDS011;9957;52.282;21.110;2023-02-15T07:55:27;50.90;;;20.45;;
19619;SDS011;9957;52.282;21.110;2023-02-15T07:57:53;56.55;;;23.80;;
19619;SDS011;9957;52.282;21.110;2023-02-15T08:00:20;57.17;;;23.08;;
19619;SDS011;9957;52.282;21.110;2023-02-15T08:02:55;47.92;;;18.73;;
19619;SDS011;9957;52.282;21.110;2023-02-15T08:05:41;46.70;;;19.42;;
19619;SDS011;9957;52.282;21.110;2023-02-15T08:08:09;45.28;;;19.33;;
19619;SDS011;9957;52.282;21.110;2023-02-15T08:10:58;46.65;;;18.90;;
19619;SDS011;9957;52.282;21.110;2023-02-15T08:13:43;43.78;;;19.27;;
19619;SDS011;9957;52.282;21.110;2023-02-15T08:16:19;44.70;;;17.98;;
19619;SDS011;9957;52.282;21.110;2023-02-15T08:18:46;48.92;;;19.13;;
19619;SDS011;9957;52.282;21.110;2023-02-15T08:21:12;52.10;;;21.10;;
19619;SDS011;9957;52.282;21.110;2023-02-15T08:23:38;46.50;;;18.65;;
19619;SDS011;9957;52.282;21.110;2023-02-15T08:26:04;48.55;;;20.67;;
19619;SDS011;9957;52.282;21.110;2023-02-15T08:28:30;47.72;;;20.92;;
19619;SDS011;9957;52.282;21.110;2023-02-15T08:31:06;53.65;;;20.83;;
19619;SDS011;9957;52.282;21.110;2023-02-15T08:33:33;173.23;;;63.13;;
19619;SDS011;9957;52.282;21.110;2023-02-15T08:36:05;166.98;;;60.75;;
19619;SDS011;9957;52.282;21.110;2023-02-15T08:38:31;138.07;;;47.83;;
19619;SDS011;9957;52.282;21.110;2023-02-15T08:40:58;110.13;;;43.83;;
19619;SDS011;9957;52.282;21.110;2023-02-15T08:43:24;76.43;;;29.65;;
19619;SDS011;9957;52.282;21.110;2023-02-15T08:45:50;86.65;;;36.28;;
19619;SDS011;9957;52.282;21.110;2023-02-15T08:48:16;72.95;;;31.13;;
19619;SDS011;9957;52.282;21.110;2023-02-15T08:50:43;71.50;;;30.75;;
19619;SDS011;9957;52.282;21.110;2023-02-15T08:53:09;73.25;;;29.67;;
19619;SDS011;9957;52.282;21.110;2023-02-15T08:55:35;67.32;;;27.83;;
19619;SDS011;9957;52.282;21.110;2023-02-15T08:58:01;58.65;;;22.50;;
19619;SDS011;9957;52.282;21.110;2023-02-15T09:00:27;53.95;;;20.73;;
19619;SDS011;9957;52.282;21.110;2023-02-15T09:02:54;47.78;;;20.85;;
19619;SDS011;9957;52.282;21.110;2023-02-15T09:05:20;53.17;;;21.60;;
19619;SDS011;9957;52.282;21.110;2023-02-15T09:07:46;57.30;;;22.17;;
19619;SDS011;9957;52.282;21.110;2023-02-15T09:10:12;55.70;;;23.23;;
19619;SDS011;9957;52.282;21.110;2023-02-15T09:12:38;55.72;;;21.63;;
19619;SDS011;9957;52.282;21.110;2023-02-15T09:15:04;63.97;;;22.77;;
19619;SDS011;9957;52.282;21.110;2023-02-15T09:17:31;51.67;;;22.27;;
19619;SDS011;9957;52.282;21.110;2023-02-15T09:19:57;59.22;;;22.38;;
19619;SDS011;9957;52.282;21.110;2023-02-15T09:22:23;63.13;;;24.45;;
19619;SDS011;9957;52.282;21.110;2023-02-15T09:24:49;57.15;;;22.15;;
19619;SDS011;9957;52.282;21.110;2023-02-15T09:27:15;55.72;;;21.13;;
19619;SDS011;9957;52.282;21.110;2023-02-15T09:29:41;52.20;;;21.55;;
19619;SDS011;9957;52.282;21.110;2023-02-15T09:32:07;50.35;;;18.83;;
19619;SDS011;9957;52.282;21.110;2023-02-15T09:37:37;49.53;;;18.50;;
19619;SDS011;9957;52.282;21.110;2023-02-15T09:40:06;47.03;;;18.02;;
19619;SDS011;9957;52.282;21.110;2023-02-15T09:42:44;50.70;;;18.58;;
19619;SDS011;9957;52.282;21.110;2023-02-15T09:46:01;47.07;;;17.50;;
19619;SDS011;9957;52.282;21.110;2023-02-15T09:48:29;44.67;;;17.75;;
19619;SDS011;9957;52.282;21.110;2023-02-15T09:56:14;41.75;;;14.90;;
19619;SDS011;9957;52.282;21.110;2023-02-15T09:58:48;43.08;;;16.45;;
19619;SDS011;9957;52.282;21.110;2023-02-15T10:06:42;38.75;;;14.95;;
19619;SDS011;9957;52.282;21.110;2023-02-15T10:09:15;58.63;;;22.67;;
19619;SDS011;9957;52.282;21.110;2023-02-15T10:14:25;47.92;;;17.30;;
19619;SDS011;9957;52.282;21.110;2023-02-15T10:24:39;60.67;;;19.98;;
19619;SDS011;9957;52.282;21.110;2023-02-15T10:27:11;56.05;;;19.38;;
19619;SDS011;9957;52.282;21.110;2023-02-15T10:29:38;57.42;;;19.90;;
19619;SDS011;9957;52.282;21.110;2023-02-15T10:34:38;67.15;;;20.40;;
19619;SDS011;9957;52.282;21.110;2023-02-15T10:42:25;68.30;;;19.40;;
19619;SDS011;9957;52.282;21.110;2023-02-15T10:55:33;49.15;;;17.85;;
19619;SDS011;9957;52.282;21.110;2023-02-15T10:58:17;44.30;;;16.83;;
19619;SDS011;9957;52.282;21.110;2023-02-15T11:00:47;56.50;;;20.73;;
19619;SDS011;9957;52.282;21.110;2023-02-15T11:06:30;63.78;;;21.10;;
19619;SDS011;9957;52.282;21.110;2023-02-15T11:08:45;58.03;;;19.25;;
19619;SDS011;9957;52.282;21.110;2023-02-15T11:11:14;56.10;;;18.65;;
19619;SDS011;9957;52.282;21.110;2023-02-15T11:13:46;56.42;;;18.50;;
19619;SDS011;9957;52.282;21.110;2023-02-15T11:16:14;49.15;;;16.58;;
19619;SDS011;9957;52.282;21.110;2023-02-15T11:18:43;48.47;;;17.27;;
19619;SDS011;9957;52.282;21.110;2023-02-15T11:21:13;56.75;;;17.40;;
19619;SDS011;9957;52.282;21.110;2023-02-15T11:23:44;52.03;;;18.00;;
19619;SDS011;9957;52.282;21.110;2023-02-15T11:26:19;52.97;;;18.90;;
19619;SDS011;9957;52.282;21.110;2023-02-15T11:31:34;58.55;;;20.48;;
19619;SDS011;9957;52.282;21.110;2023-02-15T11:34:03;49.88;;;17.95;;
19619;SDS011;9957;52.282;21.110;2023-02-15T11:36:35;57.03;;;20.50;;
19619;SDS011;9957;52.282;21.110;2023-02-15T11:39:14;52.33;;;20.20;;
19619;SDS011;9957;52.282;21.110;2023-02-15T11:41:41;54.17;;;19.00;;
19619;SDS011;9957;52.282;21.110;2023-02-15T11:44:27;53.65;;;19.95;;
19619;SDS011;9957;52.282;21.110;2023-02-15T11:46:56;45.50;;;17.73;;
19619;SDS011;9957;52.282;21.110;2023-02-15T11:49:24;68.35;;;24.58;;
19619;SDS011;9957;52.282;21.110;2023-02-15T11:51:52;52.67;;;19.52;;
19619;SDS011;9957;52.282;21.110;2023-02-15T11:54:19;71.65;;;25.92;;
19619;SDS011;9957;52.282;21.110;2023-02-15T11:56:47;77.50;;;31.35;;
19619;SDS011;9957;52.282;21.110;2023-02-15T11:59:14;61.80;;;22.10;;
19619;SDS011;9957;52.282;21.110;2023-02-15T12:01:43;55.08;;;20.25;;
19619;SDS011;9957;52.282;21.110;2023-02-15T12:04:23;63.70;;;25.30;;
19619;SDS011;9957;52.282;21.110;2023-02-15T12:06:55;63.38;;;21.45;;
19619;SDS011;9957;52.282;21.110;2023-02-15T12:14:47;62.60;;;21.20;;
19619;SDS011;9957;52.282;21.110;2023-02-15T12:17:13;66.72;;;21.17;;
19619;SDS011;9957;52.282;21.110;2023-02-15T12:19:41;48.67;;;17.13;;
19619;SDS011;9957;52.282;21.110;2023-02-15T12:22:20;54.75;;;20.45;;
19619;SDS011;9957;52.282;21.110;2023-02-15T12:24:48;53.70;;;17.42;;
19619;SDS011;9957;52.282;21.110;2023-02-15T12:27:23;51.92;;;19.05;;
19619;SDS011;9957;52.282;21.110;2023-02-15T12:29:55;45.73;;;18.07;;
19619;SDS011;9957;52.282;21.110;2023-02-15T12:32:28;64.20;;;21.95;;
19619;SDS011;9957;52.282;21.110;2023-02-15T12:34:59;60.72;;;21.38;;
19619;SDS011;9957;52.282;21.110;2023-02-15T12:37:27;60.85;;;21.08;;
19619;SDS011;9957;52.282;21.110;2023-02-15T12:39:55;54.35;;;19.77;;
19619;SDS011;9957;52.282;21.110;2023-02-15T12:42:22;52.22;;;17.67;;
19619;SDS011;9957;52.282;21.110;2023-02-15T12:45:32;60.28;;;24.00;;
19619;SDS011;9957;52.282;21.110;2023-02-15T12:47:38;48.78;;;18.55;;
19619;SDS011;9957;52.282;21.110;2023-02-15T12:52:30;67.03;;;24.65;;
19619;SDS011;9957;52.282;21.110;2023-02-15T12:55:03;80.30;;;29.38;;
19619;SDS011;9957;52.282;21.110;2023-02-15T12:57:35;92.68;;;31.75;;
19619;SDS011;9957;52.282;21.110;2023-02-15T13:00:06;87.57;;;28.10;;
19619;SDS011;9957;52.282;21.110;2023-02-15T13:02:41;71.47;;;22.95;;
19619;SDS011;9957;52.282;21.110;2023-02-15T13:07:49;73.93;;;23.67;;
19619;SDS011;9957;52.282;21.110;2023-02-15T13:10:26;99.88;;;33.05;;
19619;SDS011;9957;52.282;21.110;2023-02-15T13:12:55;71.97;;;26.02;;
19619;SDS011;9957;52.282;21.110;2023-02-15T13:15:27;66.47;;;22.58;;
19619;SDS011;9957;52.282;21.110;2023-02-15T13:17:55;101.13;;;31.40;;
19619;SDS011;9957;52.282;21.110;2023-02-15T13:20:21;181.77;;;54.80;;
19619;SDS011;9957;52.282;21.110;2023-02-15T13:22:49;114.82;;;34.45;;
19619;SDS011;9957;52.282;21.110;2023-02-15T13:25:20;88.03;;;29.23;;
19619;SDS011;9957;52.282;21.110;2023-02-15T13:27:51;86.57;;;27.87;;
19619;SDS011;9957;52.282;21.110;2023-02-15T13:32:44;64.95;;;21.48;;
19619;SDS011;9957;52.282;21.110;2023-02-15T13:35:17;104.95;;;34.45;;
19619;SDS011;9957;52.282;21.110;2023-02-15T13:40:43;66.07;;;23.98;;
19619;SDS011;9957;52.282;21.110;2023-02-15T13:43:23;66.47;;;24.03;;
19619;SDS011;9957;52.282;21.110;2023-02-15T13:45:55;76.13;;;25.15;;
19619;SDS011;9957;52.282;21.110;2023-02-15T13:53:53;82.33;;;26.73;;
19619;SDS011;9957;52.282;21.110;2023-02-15T13:56:35;93.45;;;32.83;;
19619;SDS011;9957;52.282;21.110;2023-02-15T14:01:34;94.38;;;34.72;;
19619;SDS011;9957;52.282;21.110;2023-02-15T14:06:55;77.20;;;24.98;;
19619;SDS011;9957;52.282;21.110;2023-02-15T14:22:43;73.40;;;25.77;;
19619;SDS011;9957;52.282;21.110;2023-02-15T14:25:18;78.85;;;27.15;;
19619;SDS011;9957;52.282;21.110;2023-02-15T14:30:20;58.85;;;20.58;;
19619;SDS011;9957;52.282;21.110;2023-02-15T14:32:51;57.08;;;19.23;;
19619;SDS011;9957;52.282;21.110;2023-02-15T14:35:19;62.47;;;20.63;;
19619;SDS011;9957;52.282;21.110;2023-02-15T14:45:56;56.78;;;19.90;;
19619;SDS011;9957;52.282;21.110;2023-02-15T14:48:31;60.22;;;19.58;;
19619;SDS011;9957;52.282;21.110;2023-02-15T14:50:59;60.08;;;19.15;;
19619;SDS011;9957;52.282;21.110;2023-02-15T14:56:38;64.97;;;20.67;;
19619;SDS011;9957;52.282;21.110;2023-02-15T15:07:20;74.43;;;27.42;;
19619;SDS011;9957;52.282;21.110;2023-02-15T15:10:02;66.47;;;21.27;;
19619;SDS011;9957;52.282;21.110;2023-02-15T15:14:58;67.70;;;22.02;;
19619;SDS011;9957;52.282;21.110;2023-02-15T15:20:03;76.72;;;24.67;;
19619;SDS011;9957;52.282;21.110;2023-02-15T15:22:31;92.15;;;31.00;;
19619;SDS011;9957;52.282;21.110;2023-02-15T15:25:11;97.75;;;31.85;;
19619;SDS011;9957;52.282;21.110;2023-02-15T15:27:42;107.80;;;34.83;;
19619;SDS011;9957;52.282;21.110;2023-02-15T15:32:42;98.60;;;30.73;;
19619;SDS011;9957;52.282;21.110;2023-02-15T15:35:18;122.78;;;37.92;;
19619;SDS011;9957;52.282;21.110;2023-02-15T15:37:59;116.82;;;36.90;;
19619;SDS011;9957;52.282;21.110;2023-02-15T15:48:30;75.03;;;25.03;;
19619;SDS011;9957;52.282;21.110;2023-02-15T15:51:20;80.43;;;26.93;;
19619;SDS011;9957;52.282;21.110;2023-02-15T15:53:45;78.78;;;27.48;;
19619;SDS011;9957;52.282;21.110;2023-02-15T15:56:21;69.50;;;22.53;;
19619;SDS011;9957;52.282;21.110;2023-02-15T15:58:51;80.97;;;28.75;;
19619;SDS011;9957;52.282;21.110;2023-02-15T16:01:20;71.85;;;22.48;;
19619;SDS011;9957;52.282;21.110;2023-02-15T16:03:50;58.22;;;19.38;;
19619;SDS011;9957;52.282;21.110;2023-02-15T16:09:16;68.20;;;22.42;;
19619;SDS011;9957;52.282;21.110;2023-02-15T16:11:44;62.03;;;19.30;;
19619;SDS011;9957;52.282;21.110;2023-02-15T16:14:24;64.35;;;19.98;;
19619;SDS011;9957;52.282;21.110;2023-02-15T16:16:52;63.45;;;20.50;;
19619;SDS011;9957;52.282;21.110;2023-02-15T16:19:24;69.23;;;22.07;;
19619;SDS011;9957;52.282;21.110;2023-02-15T16:21:51;80.35;;;26.55;;
19619;SDS011;9957;52.282;21.110;2023-02-15T16:24:22;71.75;;;23.40;;
19619;SDS011;9957;52.282;21.110;2023-02-15T16:26:59;75.15;;;24.48;;
19619;SDS011;9957;52.282;21.110;2023-02-15T16:29:30;68.97;;;23.70;;
19619;SDS011;9957;52.282;21.110;2023-02-15T16:31:58;69.78;;;23.70;;
19619;SDS011;9957;52.282;21.110;2023-02-15T16:34:24;63.35;;;20.75;;
19619;SDS011;9957;52.282;21.110;2023-02-15T16:37:11;69.38;;;23.50;;
19619;SDS011;9957;52.282;21.110;2023-02-15T16:39:40;67.20;;;23.53;;
19619;SDS011;9957;52.282;21.110;2023-02-15T16:42:06;73.07;;;24.65;;
19619;SDS011;9957;52.282;21.110;2023-02-15T16:44:32;80.07;;;26.65;;
19619;SDS011;9957;52.282;21.110;2023-02-15T16:46:58;74.07;;;26.67;;
19619;SDS011;9957;52.282;21.110;2023-02-15T16:49:26;93.60;;;32.42;;
19619;SDS011;9957;52.282;21.110;2023-02-15T16:51:54;68.17;;;25.87;;
19619;SDS011;9957;52.282;21.110;2023-02-15T16:54:21;64.60;;;22.90;;
19619;SDS011;9957;52.282;21.110;2023-02-15T16:56:48;73.07;;;24.25;;
19619;SDS011;9957;52.282;21.110;2023-02-15T16:59:38;63.33;;;21.33;;
19619;SDS011;9957;52.282;21.110;2023-02-15T17:02:03;57.95;;;18.83;;
19619;SDS011;9957;52.282;21.110;2023-02-15T17:04:30;65.93;;;22.08;;
19619;SDS011;9957;52.282;21.110;2023-02-15T17:07:05;80.00;;;24.05;;
19619;SDS011;9957;52.282;21.110;2023-02-15T17:09:31;62.42;;;19.95;;